Time;durP1;ratioP1;P1;durP2;ratioP2;P2;SDS_P1;SDS_P2;PMS_P1;PMS_P2;Temp;Humidity;BMP_temperature;BMP_pressure;BME280_temperature;BME280_humidity;BME280_pressure;Samples;Min_cycle;Max_cycle;Signal;HPM_P1;HPM_P2
2023/08/21 00:01:10;;;;;;;18.20;16.40;;;24.60;1.00;;;;;;5021082;28;20773;-70
2023/08/21 00:03:59;;;;;;;17.92;16.00;;;24.50;1.00;;;;;;5004784;28;20236;-72
2023/08/21 00:06:48;;;;;;;18.50;16.70;;;24.50;1.00;;;;;;4989210;28;20236;-71
2023/08/21 00:09:37;;;;;;;18.05;16.13;;;24.50;1.00;;;;;;5006243;28;20648;-72
2023/08/21 00:12:28;;;;;;;17.27;15.77;;;24.40;1.00;;;;;;4993022;28;20225;-69
2023/08/21 00:15:17;;;;;;;17.40;15.82;;;24.50;1.00;;;;;;4987133;28;20218;-71
2023/08/21 00:18:06;;;;;;;18.52;16.10;;;24.40;1.00;;;;;;5014156;28;20217;-72
2023/08/21 00:20:55;;;;;;;16.60;14.98;;;24.50;1.00;;;;;;5002553;28;20319;-71
2023/08/21 00:23:44;;;;;;;18.52;16.08;;;24.50;1.00;;;;;;5009992;28;20621;-70
2023/08/21 00:26:32;;;;;;;17.63;16.02;;;24.40;1.00;;;;;;5001029;28;20222;-70
2023/08/21 00:29:23;;;;;;;17.67;15.98;;;24.40;1.00;;;;;;4995762;28;20223;-69
2023/08/21 00:32:13;;;;;;;18.55;16.02;;;24.40;1.00;;;;;;5016758;28;20309;-70
2023/08/21 00:35:03;;;;;;;17.83;15.77;;;24.30;1.00;;;;;;5008161;28;20217;-70
2023/08/21 00:37:51;;;;;;;17.80;16.00;;;24.30;1.00;;;;;;5012661;28;20360;-69
2023/08/21 00:40:40;;;;;;;18.02;16.30;;;24.20;1.00;;;;;;4996001;28;20998;-71
2023/08/21 00:43:29;;;;;;;17.33;15.63;;;24.20;1.00;;;;;;4999994;28;20359;-71
2023/08/21 00:46:19;;;;;;;20.15;16.33;;;24.20;1.00;;;;;;5004331;28;20611;-70
2023/08/21 00:49:09;;;;;;;17.55;15.98;;;24.10;1.00;;;;;;5006379;28;20241;-70
2023/08/21 00:51:58;;;;;;;18.30;16.50;;;24.10;1.00;;;;;;5001630;28;20675;-71
2023/08/21 00:54:47;;;;;;;18.00;16.20;;;24.10;1.00;;;;;;4989265;28;20712;-70
2023/08/21 00:57:38;;;;;;;18.15;16.27;;;24.10;1.00;;;;;;5014983;28;20306;-71
2023/08/21 01:00:29;;;;;;;18.23;15.85;;;24.10;1.00;;;;;;5010985;28;20226;-72
2023/08/21 01:03:19;;;;;;;19.25;17.30;;;24.10;1.00;;;;;;5017650;28;20222;-72
2023/08/21 01:06:08;;;;;;;18.08;16.30;;;24.00;1.00;;;;;;5016870;28;20759;-70
2023/08/21 01:09:01;;;;;;;18.88;16.90;;;24.00;1.00;;;;;;5016797;28;20258;-72
2023/08/21 01:11:56;;;;;;;18.55;16.70;;;23.90;1.00;;;;;;5019449;28;20694;-70
2023/08/21 01:14:59;;;;;;;18.75;16.88;;;23.90;1.00;;;;;;5004893;28;20225;-70
2023/08/21 01:17:50;;;;;;;18.88;16.75;;;23.90;1.00;;;;;;5009402;28;20353;-71
2023/08/21 01:20:41;;;;;;;18.30;16.50;;;23.90;1.00;;;;;;4997270;28;20229;-71
2023/08/21 01:23:36;;;;;;;18.23;16.40;;;23.90;1.00;;;;;;4998422;28;20222;-70
2023/08/21 01:26:24;;;;;;;18.10;16.25;;;23.80;1.00;;;;;;4998652;28;20671;-72
2023/08/21 01:29:14;;;;;;;19.17;17.15;;;23.70;1.00;;;;;;5009242;28;20795;-70
2023/08/21 01:32:08;;;;;;;19.08;17.15;;;23.70;1.00;;;;;;5008377;28;20616;-71
2023/08/21 01:34:57;;;;;;;21.45;17.52;;;23.70;1.00;;;;;;5011282;28;20958;-70
2023/08/21 01:37:47;;;;;;;19.20;17.02;;;23.70;1.00;;;;;;5000175;28;20795;-71
2023/08/21 01:40:37;;;;;;;19.27;17.27;;;23.70;1.00;;;;;;5008072;28;20233;-70
2023/08/21 01:43:26;;;;;;;18.70;16.80;;;23.60;1.00;;;;;;5007787;28;20266;-70
2023/08/21 01:46:15;;;;;;;19.75;17.85;;;23.70;99.90;;;;;;5003008;28;20244;-71
2023/08/21 01:49:04;;;;;;;18.15;16.45;;;23.60;69.40;;;;;;5013573;28;20233;-72
2023/08/21 01:51:53;;;;;;;19.20;17.40;;;23.60;70.00;;;;;;5005842;28;20242;-70
2023/08/21 01:54:47;;;;;;;19.40;17.40;;;23.60;99.90;;;;;;4999730;28;20806;-71
2023/08/21 01:57:38;;;;;;;19.70;17.75;;;23.60;99.90;;;;;;5021154;28;20883;-69
2023/08/21 02:00:27;;;;;;;19.98;17.95;;;23.50;99.90;;;;;;5016549;28;20677;-69
2023/08/21 02:03:15;;;;;;;20.63;18.10;;;23.50;99.90;;;;;;5005706;28;20333;-69
2023/08/21 02:06:04;;;;;;;19.25;17.27;;;23.50;99.90;;;;;;5020505;28;20232;-70
2023/08/21 02:08:54;;;;;;;19.35;17.55;;;23.50;99.90;;;;;;5012383;28;20241;-70
2023/08/21 02:11:43;;;;;;;22.55;17.63;;;23.40;99.90;;;;;;5015869;28;20213;-70
2023/08/21 02:14:33;;;;;;;21.42;18.90;;;23.50;99.90;;;;;;5003180;28;20272;-70
2023/08/21 02:17:27;;;;;;;20.70;18.52;;;23.50;99.90;;;;;;4999459;28;20233;-70
2023/08/21 02:20:16;;;;;;;20.48;17.55;;;23.50;99.90;;;;;;5001872;28;20214;-71
2023/08/21 02:23:06;;;;;;;20.40;18.30;;;23.40;99.90;;;;;;5008003;28;20253;-72
2023/08/21 02:25:55;;;;;;;19.70;17.65;;;23.50;99.90;;;;;;5018676;28;20320;-72
2023/08/21 02:28:54;;;;;;;19.48;17.50;;;23.50;99.90;;;;;;5018284;28;20225;-72
2023/08/21 02:31:48;;;;;;;21.17;19.05;;;23.30;99.90;;;;;;5021194;28;20225;-72
2023/08/21 02:34:39;;;;;;;19.73;17.63;;;23.30;99.90;;;;;;5001881;28;20273;-72
2023/08/21 02:37:28;;;;;;;22.13;18.95;;;23.20;1.00;;;;;;5004780;28;20209;-72
2023/08/21 02:40:17;;;;;;;19.80;17.85;;;23.30;1.00;;;;;;5014161;28;20305;-73
2023/08/21 02:43:07;;;;;;;19.00;17.30;;;23.30;1.00;;;;;;5016103;28;20225;-72
2023/08/21 02:45:56;;;;;;;21.35;17.95;;;23.20;1.00;;;;;;5021445;28;20228;-72
2023/08/21 02:48:47;;;;;;;19.77;17.77;;;23.20;1.00;;;;;;5017575;28;20277;-71
2023/08/21 02:51:36;;;;;;;21.50;19.20;;;23.20;1.00;;;;;;4986169;28;20234;-71
2023/08/21 02:54:25;;;;;;;21.67;19.15;;;23.10;1.00;;;;;;4996560;28;20215;-72
2023/08/21 02:57:14;;;;;;;21.27;19.08;;;23.20;1.00;;;;;;5002200;28;20230;-72
2023/08/21 03:00:04;;;;;;;27.50;18.65;;;23.00;1.00;;;;;;5000605;28;20222;-71
2023/08/21 03:02:53;;;;;;;20.98;18.73;;;23.10;1.00;;;;;;5005573;28;20226;-72
2023/08/21 03:05:43;;;;;;;20.67;18.58;;;23.00;1.00;;;;;;4987090;28;20677;-71
2023/08/21 03:08:32;;;;;;;21.42;18.90;;;23.00;91.50;;;;;;5010315;28;20221;-71
2023/08/21 03:11:21;;;;;;;20.50;18.50;;;23.00;99.90;;;;;;5021229;28;21410;-72
2023/08/21 03:14:10;;;;;;;22.65;18.38;;;23.10;99.90;;;;;;5003045;28;20555;-70
2023/08/21 03:16:59;;;;;;;21.83;19.27;;;23.10;99.90;;;;;;5012339;28;20226;-70
2023/08/21 03:19:51;;;;;;;20.27;18.17;;;23.10;99.90;;;;;;5020170;28;20241;-70
2023/08/21 03:22:41;;;;;;;21.20;19.00;;;23.00;99.90;;;;;;5007305;28;20987;-72
2023/08/21 03:25:30;;;;;;;21.67;18.67;;;23.00;99.90;;;;;;4997800;28;20222;-73
2023/08/21 03:28:19;;;;;;;22.13;19.83;;;23.00;99.90;;;;;;5008584;28;20238;-74
2023/08/21 03:31:08;;;;;;;24.00;19.58;;;23.10;99.90;;;;;;4990896;28;20238;-72
2023/08/21 03:33:57;;;;;;;21.58;19.48;;;23.00;99.90;;;;;;4999576;28;20278;-72
2023/08/21 03:36:46;;;;;;;22.25;19.85;;;23.00;99.90;;;;;;5010048;28;20304;-71
2023/08/21 03:39:38;;;;;;;21.33;19.23;;;22.90;99.90;;;;;;5000760;28;20229;-72
2023/08/21 03:42:30;;;;;;;22.05;19.65;;;22.90;99.90;;;;;;5008416;28;20299;-71
2023/08/21 03:45:19;;;;;;;22.15;19.85;;;22.90;99.90;;;;;;4993156;28;20686;-72
2023/08/21 03:48:08;;;;;;;22.65;19.02;;;22.90;1.00;;;;;;5014151;28;20225;-71
2023/08/21 03:50:58;;;;;;;23.40;18.80;;;22.90;99.90;;;;;;5008197;28;20249;-74
2023/08/21 03:53:47;;;;;;;24.17;20.10;;;22.90;99.90;;;;;;5014786;28;20293;-72
2023/08/21 03:56:37;;;;;;;22.63;20.23;;;22.90;1.00;;;;;;5019221;28;20228;-71
2023/08/21 03:59:27;;;;;;;22.90;20.38;;;22.80;1.00;;;;;;5019813;28;20224;-72
2023/08/21 04:02:16;;;;;;;21.48;19.42;;;22.80;1.00;;;;;;5001866;28;20233;-72
2023/08/21 04:05:05;;;;;;;26.77;20.45;;;22.80;1.00;;;;;;5008299;28;20280;-70
2023/08/21 04:07:54;;;;;;;21.92;19.35;;;22.80;1.00;;;;;;4999177;28;20764;-71
2023/08/21 04:10:43;;;;;;;22.27;19.38;;;22.80;1.00;;;;;;4988401;28;20226;-70
2023/08/21 04:13:34;;;;;;;23.67;20.42;;;22.90;1.00;;;;;;5002563;28;20281;-69
2023/08/21 04:16:23;;;;;;;23.27;20.13;;;22.90;14.90;;;;;;4995358;28;20564;-74
2023/08/21 04:19:12;;;;;;;22.45;20.15;;;22.90;1.00;;;;;;5011054;28;20229;-74
2023/08/21 04:22:03;;;;;;;23.40;20.27;;;23.10;1.00;;;;;;4999082;28;20498;-72
2023/08/21 04:24:52;;;;;;;26.60;19.92;;;23.20;1.00;;;;;;5002056;28;20593;-71
2023/08/21 04:27:42;;;;;;;21.65;19.35;;;23.10;1.00;;;;;;5017623;28;20236;-72
2023/08/21 04:30:32;;;;;;;22.80;20.30;;;23.10;1.00;;;;;;5001740;28;20237;-72
2023/08/21 04:33:21;;;;;;;22.05;19.85;;;23.10;99.90;;;;;;4997912;28;20763;-71
2023/08/21 04:36:15;;;;;;;21.33;19.13;;;23.10;99.90;;;;;;5002384;28;20217;-71
2023/08/21 04:39:06;;;;;;;21.55;19.48;;;23.10;1.00;;;;;;5018929;28;20259;-72
2023/08/21 04:41:55;;;;;;;21.70;19.40;;;23.10;1.00;;;;;;5016934;28;20217;-72
2023/08/21 04:44:44;;;;;;;24.45;20.30;;;23.10;1.00;;;;;;5007465;28;20233;-74
2023/08/21 04:47:35;;;;;;;22.50;19.80;;;23.10;1.00;;;;;;4990006;28;20232;-72
2023/08/21 04:50:24;;;;;;;23.08;20.58;;;23.30;1.00;;;;;;5005517;28;20233;-73
2023/08/21 04:53:13;;;;;;;23.30;20.38;;;23.40;1.00;;;;;;4992161;28;20230;-73
2023/08/21 04:56:03;;;;;;;26.90;20.80;;;23.50;99.90;;;;;;5020814;28;20696;-72
2023/08/21 04:58:54;;;;;;;25.63;20.95;;;23.70;99.90;;;;;;5022121;28;20331;-71
2023/08/21 05:01:46;;;;;;;26.08;20.88;;;23.70;99.90;;;;;;5024331;28;20230;-71
2023/08/21 05:04:38;;;;;;;22.33;20.00;;;23.70;99.90;;;;;;4988945;28;20237;-70
2023/08/21 05:07:28;;;;;;;24.35;20.83;;;23.70;99.90;;;;;;5016917;28;20245;-69
2023/08/21 05:10:19;;;;;;;23.13;20.60;;;23.70;99.90;;;;;;5005701;28;20234;-71
2023/08/21 05:13:08;;;;;;;24.42;21.00;;;23.70;46.60;;;;;;4998177;28;21133;-71
2023/08/21 05:15:59;;;;;;;22.80;19.92;;;23.60;99.90;;;;;;5016568;28;20877;-73
2023/08/21 05:18:52;;;;;;;23.67;21.20;;;23.70;99.90;;;;;;5005505;28;20222;-73
2023/08/21 05:21:43;;;;;;;26.02;21.23;;;23.70;42.80;;;;;;5008108;28;20685;-72
2023/08/21 05:24:32;;;;;;;23.17;20.70;;;23.80;1.00;;;;;;5002997;28;20311;-71
2023/08/21 05:27:24;;;;;;;23.23;20.58;;;23.80;99.90;;;;;;5012456;28;20232;-71
2023/08/21 05:30:15;;;;;;;23.15;20.65;;;23.80;94.60;;;;;;4995081;28;20293;-73
2023/08/21 05:33:04;;;;;;;27.25;21.10;;;24.00;99.90;;;;;;5020073;28;20233;-79
2023/08/21 05:35:57;;;;;;;23.48;20.63;;;24.00;99.90;;;;;;5018482;28;20259;-71
2023/08/21 05:38:48;;;;;;;26.58;21.30;;;24.10;99.90;;;;;;5013795;28;20214;-70
2023/08/21 05:41:39;;;;;;;25.30;20.73;;;24.10;1.00;;;;;;4987023;28;20281;-71
2023/08/21 05:44:28;;;;;;;23.40;20.52;;;24.20;1.00;;;;;;5017738;28;20241;-72
2023/08/21 05:47:18;;;;;;;24.27;20.85;;;24.50;1.00;;;;;;4990613;28;20226;-72
2023/08/21 05:50:08;;;;;;;22.77;20.15;;;24.50;99.90;;;;;;5010914;28;20288;-70
2023/08/21 05:52:58;;;;;;;23.60;21.08;;;24.40;99.90;;;;;;5008418;28;20237;-71
2023/08/21 05:55:50;;;;;;;22.08;19.63;;;24.30;1.00;;;;;;5001927;28;20230;-71
2023/08/21 05:58:38;;;;;;;23.75;19.95;;;24.30;1.00;;;;;;5009187;28;20705;-72
2023/08/21 06:01:28;;;;;;;25.85;20.02;;;24.40;1.00;;;;;;5006851;28;20707;-70
2023/08/21 06:04:18;;;;;;;24.20;20.48;;;24.20;1.00;;;;;;5010077;28;20232;-72
2023/08/21 06:07:19;;;;;;;22.17;19.42;;;24.20;15.10;;;;;;4996958;28;20222;-70
2023/08/21 06:10:11;;;;;;;24.73;21.40;;;24.20;99.90;;;;;;4999674;28;20279;-70
2023/08/21 06:13:01;;;;;;;27.42;20.70;;;24.30;1.00;;;;;;5006784;28;20225;-69
2023/08/21 06:15:50;;;;;;;25.08;19.85;;;24.40;1.00;;;;;;5007919;28;20226;-71
2023/08/21 06:18:41;;;;;;;24.70;20.92;;;24.40;1.00;;;;;;5021391;28;20768;-73
2023/08/21 06:21:30;;;;;;;23.77;20.02;;;24.40;1.00;;;;;;5002047;28;20222;-71
2023/08/21 06:24:19;;;;;;;23.42;20.90;;;24.30;1.00;;;;;;5017044;28;20221;-72
2023/08/21 06:27:12;;;;;;;24.58;20.58;;;24.20;1.00;;;;;;5015349;28;20700;-70
2023/08/21 06:30:03;;;;;;;26.25;20.98;;;24.00;1.00;;;;;;5001598;28;20233;-70
2023/08/21 06:32:52;;;;;;;26.58;21.45;;;23.90;1.00;;;;;;5020242;28;20221;-70
2023/08/21 06:35:41;;;;;;;22.55;20.17;;;23.90;99.90;;;;;;5018805;28;20232;-70
2023/08/21 06:38:29;;;;;;;23.30;19.58;;;24.00;99.90;;;;;;5017843;28;20280;-70
2023/08/21 06:41:18;;;;;;;24.13;20.88;;;24.10;99.90;;;;;;5014305;28;20617;-69
2023/08/21 06:44:07;;;;;;;24.48;20.27;;;24.20;99.90;;;;;;5011762;28;20247;-70
2023/08/21 06:46:58;;;;;;;24.48;21.25;;;24.40;1.00;;;;;;5006282;28;20222;-68
2023/08/21 06:49:47;;;;;;;25.92;21.33;;;24.60;1.00;;;;;;4995036;28;20725;-69
2023/08/21 06:52:36;;;;;;;26.27;21.20;;;24.70;1.00;;;;;;4977011;28;20218;-73
2023/08/21 06:55:25;;;;;;;21.85;19.63;;;24.90;99.90;;;;;;4977820;28;20254;-73
2023/08/21 06:58:14;;;;;;;25.08;20.30;;;24.90;1.00;;;;;;4971651;28;20734;-72
2023/08/21 07:01:03;;;;;;;22.58;20.27;;;24.90;99.90;;;;;;5001092;28;20222;-72
2023/08/21 07:03:53;;;;;;;26.23;21.35;;;24.80;1.00;;;;;;5000441;28;20229;-75
2023/08/21 07:06:42;;;;;;;25.45;22.23;;;24.60;99.90;;;;;;4990335;28;20226;-73
2023/08/21 07:09:32;;;;;;;24.38;21.65;;;24.50;1.00;;;;;;4984675;28;20238;-71
2023/08/21 07:12:22;;;;;;;27.77;20.55;;;24.40;1.00;;;;;;4987007;28;20237;-74
2023/08/21 07:15:11;;;;;;;24.25;21.80;;;24.50;99.90;;;;;;4989343;28;20215;-74
2023/08/21 07:18:00;;;;;;;23.45;21.02;;;24.40;1.00;;;;;;4996582;28;20215;-75
2023/08/21 07:20:53;;;;;;;27.55;21.83;;;24.50;13.80;;;;;;4988077;28;20296;-73
2023/08/21 07:23:42;;;;;;;24.02;21.42;;;24.40;1.00;;;;;;5008201;28;20281;-73
2023/08/21 07:26:31;;;;;;;24.48;21.40;;;24.40;1.00;;;;;;5006346;28;20236;-72
2023/08/21 07:29:20;;;;;;;24.67;20.73;;;24.20;1.00;;;;;;5007437;28;20241;-76
2023/08/21 07:32:09;;;;;;;23.92;21.50;;;24.20;1.00;;;;;;5006429;28;20225;-73
2023/08/21 07:34:58;;;;;;;25.20;20.45;;;24.20;99.90;;;;;;5017925;28;20324;-73
2023/08/21 07:37:48;;;;;;;23.63;21.05;;;24.20;2.60;;;;;;5004782;28;20322;-73
2023/08/21 07:40:37;;;;;;;24.05;20.70;;;24.00;91.90;;;;;;4997943;28;20238;-74
2023/08/21 07:43:26;;;;;;;23.77;21.30;;;24.00;99.90;;;;;;4999955;28;20237;-73
2023/08/21 07:46:18;;;;;;;24.48;20.73;;;24.00;1.00;;;;;;5007125;28;20636;-73
2023/08/21 07:49:07;;;;;;;24.77;22.30;;;24.10;1.00;;;;;;5009968;28;20237;-74
2023/08/21 07:51:56;;;;;;;23.75;21.45;;;24.20;99.90;;;;;;5019072;28;20264;-74
2023/08/21 07:54:47;;;;;;;23.95;21.50;;;24.20;99.90;;;;;;5007430;28;20225;-74
2023/08/21 07:57:36;;;;;;;23.17;20.88;;;24.30;1.00;;;;;;4995476;28;20226;-75
2023/08/21 08:00:25;;;;;;;22.98;20.58;;;24.40;99.90;;;;;;5003106;28;20214;-73
2023/08/21 08:03:14;;;;;;;23.42;20.25;;;24.50;99.90;;;;;;5021971;28;20282;-74
2023/08/21 08:06:03;;;;;;;22.25;19.85;;;24.70;99.90;;;;;;4998885;28;20250;-75
2023/08/21 08:08:53;;;;;;;21.77;19.48;;;25.00;1.00;;;;;;5007118;28;20225;-75
2023/08/21 08:11:45;;;;;;;24.33;19.33;;;25.30;1.00;;;;;;5008122;28;20256;-74
2023/08/21 08:14:34;;;;;;;20.67;18.45;;;25.50;99.90;;;;;;5021473;28;20229;-74
2023/08/21 08:17:23;;;;;;;22.02;18.35;;;25.80;99.90;;;;;;5004519;28;21220;-73
2023/08/21 08:20:12;;;;;;;19.95;17.90;;;26.70;1.00;;;;;;5001850;28;20822;-74
2023/08/21 08:23:02;;;;;;;21.67;17.60;;;26.70;1.00;;;;;;5012972;28;20228;-73
2023/08/21 08:25:52;;;;;;;21.75;17.27;;;26.70;1.00;;;;;;5000607;28;20630;-71
2023/08/21 08:28:42;;;;;;;17.58;15.77;;;26.80;1.00;;;;;;5021318;28;20229;-69
2023/08/21 08:31:31;;;;;;;18.88;15.85;;;27.10;1.00;;;;;;5021410;28;20236;-71
2023/08/21 08:34:21;;;;;;;18.23;15.05;;;27.80;1.00;;;;;;5021846;28;20221;-73
2023/08/21 08:37:10;;;;;;;19.50;15.43;;;28.00;99.90;;;;;;5016966;28;20685;-72
2023/08/21 08:39:58;;;;;;;15.52;13.68;;;27.90;99.90;;;;;;5007495;28;20260;-73
2023/08/21 08:42:48;;;;;;;19.52;16.00;;;28.10;99.90;;;;;;5001485;28;20222;-74
2023/08/21 08:45:39;;;;;;;17.23;15.50;;;28.40;99.90;;;;;;5012099;28;20233;-71
2023/08/21 08:48:27;;;;;;;18.92;15.35;;;28.50;99.90;;;;;;4993399;28;20658;-73
2023/08/21 08:51:17;;;;;;;17.08;15.27;;;28.50;99.90;;;;;;5013164;28;20240;-72
2023/08/21 08:54:07;;;;;;;16.17;14.57;;;29.30;99.90;;;;;;5006304;28;20228;-70
2023/08/21 08:56:56;;;;;;;15.85;14.20;;;29.90;99.90;;;;;;5020663;28;20237;-72
2023/08/21 08:59:45;;;;;;;16.88;15.23;;;30.20;99.90;;;;;;5018749;28;20281;-72
2023/08/21 09:02:36;;;;;;;15.23;13.65;;;30.60;99.90;;;;;;5022151;28;20282;-71
2023/08/21 09:05:25;;;;;;;14.60;13.20;;;31.30;99.90;;;;;;5019898;28;20225;-73
2023/08/21 09:08:15;;;;;;;14.82;13.10;;;31.50;99.90;;;;;;5020513;28;20255;-72
2023/08/21 09:11:04;;;;;;;13.50;12.30;;;31.90;99.90;;;;;;5020413;28;20712;-72
2023/08/21 09:13:54;;;;;;;12.65;11.65;;;32.10;99.90;;;;;;5019225;28;20229;-72
2023/08/21 09:17:01;;;;;;;13.48;11.82;;;32.10;99.90;;;;;;5000722;28;20222;-72
2023/08/21 09:19:55;;;;;;;10.95;9.95;;;32.80;99.90;;;;;;4997569;28;20714;-73
2023/08/21 09:22:53;;;;;;;17.98;9.75;;;33.20;92.40;;;;;;5004622;28;20228;-73
2023/08/21 09:25:44;;;;;;;20.15;12.13;;;33.60;86.00;;;;;;5011613;28;20273;-71
2023/08/21 09:28:35;;;;;;;12.95;9.32;;;34.00;65.80;;;;;;4996558;28;20233;-75
2023/08/21 09:31:37;;;;;;;10.50;8.35;;;34.50;53.70;;;;;;5117446;27;20745;-70
2023/08/21 09:34:36;;;;;;;11.07;9.85;;;34.70;55.30;;;;;;5117104;27;20704;-71
2023/08/21 09:37:30;;;;;;;11.52;10.35;;;35.00;51.60;;;;;;5112714;28;20271;-71
2023/08/21 09:40:19;;;;;;;8.93;8.00;;;35.20;49.10;;;;;;5098324;28;20281;-73
2023/08/21 09:43:10;;;;;;;9.30;8.23;;;35.40;46.00;;;;;;5115014;28;20241;-72
2023/08/21 09:45:59;;;;;;;8.63;7.72;;;35.60;51.60;;;;;;5092408;28;20228;-74
2023/08/21 09:48:54;;;;;;;10.68;9.20;;;36.00;51.30;;;;;;5093082;28;20235;-73
2023/08/21 09:51:44;;;;;;;9.52;7.53;;;36.60;45.80;;;;;;5105078;28;20234;-73
2023/08/21 09:54:34;;;;;;;8.48;6.78;;;37.30;38.50;;;;;;5111443;28;21021;-73
2023/08/21 09:57:24;;;;;;;7.57;6.75;;;37.90;28.80;;;;;;5113516;28;20768;-73
2023/08/21 10:00:15;;;;;;;8.73;7.25;;;38.50;22.80;;;;;;5110525;28;20215;-72
2023/08/21 10:03:07;;;;;;;7.10;6.40;;;39.10;18.70;;;;;;5109962;28;20221;-73
2023/08/21 10:06:00;;;;;;;8.73;6.60;;;39.40;14.00;;;;;;5112363;28;20205;-72
2023/08/21 10:08:55;;;;;;;8.88;6.80;;;39.30;9.70;;;;;;5114328;28;20701;-72
2023/08/21 10:11:45;;;;;;;6.82;6.22;;;39.70;9.80;;;;;;5105309;28;20546;-74
2023/08/21 10:14:34;;;;;;;10.40;5.75;;;39.50;9.10;;;;;;5100428;28;20697;-73
2023/08/21 10:17:23;;;;;;;5.70;5.20;;;39.60;8.50;;;;;;5112677;28;20225;-74
2023/08/21 10:20:12;;;;;;;7.30;5.22;;;39.40;6.90;;;;;;5097379;28;20206;-73
2023/08/21 10:23:04;;;;;;;5.15;4.65;;;39.20;5.70;;;;;;5097552;28;20221;-73
2023/08/21 10:25:57;;;;;;;5.63;4.65;;;39.50;6.00;;;;;;5095834;28;21011;-72
2023/08/21 10:28:51;;;;;;;5.88;4.70;;;40.00;2.50;;;;;;5081067;28;20222;-72
2023/08/21 10:31:43;;;;;;;5.65;5.18;;;40.40;1.90;;;;;;5093795;28;20312;-72
2023/08/21 10:34:35;;;;;;;6.85;3.83;;;40.90;1.00;;;;;;5103161;28;20214;-68
2023/08/21 10:37:24;;;;;;;5.20;3.88;;;41.30;1.00;;;;;;5115085;28;20902;-70
2023/08/21 10:40:24;;;;;;;4.18;3.35;;;41.70;1.00;;;;;;5091588;28;20716;-70
2023/08/21 10:43:39;;;;;;;9.23;3.13;;;42.20;1.00;;;;;;5083682;28;21995;-72
2023/08/21 10:46:28;;;;;;;4.05;3.33;;;42.40;1.00;;;;;;5073433;28;20227;-71
2023/08/21 10:49:17;;;;;;;7.15;3.58;;;42.60;1.00;;;;;;5077706;28;20235;-71
2023/08/21 10:52:07;;;;;;;4.80;3.75;;;42.80;1.00;;;;;;5076981;28;20230;-72
2023/08/21 10:54:58;;;;;;;8.52;3.70;;;43.00;1.00;;;;;;5081293;27;20760;-75
2023/08/21 10:57:50;;;;;;;4.13;3.72;;;43.30;1.00;;;;;;5077010;28;20272;-74
2023/08/21 11:00:39;;;;;;;4.38;3.97;;;43.60;1.00;;;;;;5080331;28;20230;-71
2023/08/21 11:03:28;;;;;;;4.38;3.97;;;43.70;1.00;;;;;;5074445;28;20285;-75
2023/08/21 11:06:20;;;;;;;5.10;4.03;;;43.70;1.00;;;;;;5065910;28;20226;-75
2023/08/21 11:09:14;;;;;;;4.40;4.00;;;44.00;1.00;;;;;;5084656;28;20218;-74
2023/08/21 11:12:08;;;;;;;4.10;3.80;;;44.20;1.00;;;;;;5078251;28;20784;-75
2023/08/21 11:14:58;;;;;;;4.72;4.00;;;44.30;1.00;;;;;;5096224;28;20230;-71
2023/08/21 11:17:55;;;;;;;4.30;3.90;;;44.10;1.00;;;;;;5085505;28;20724;-72
2023/08/21 11:20:44;;;;;;;5.68;4.07;;;44.30;1.00;;;;;;5092957;28;20214;-71
2023/08/21 11:23:35;;;;;;;4.13;3.70;;;44.70;1.00;;;;;;5077833;28;20229;-72
2023/08/21 11:26:26;;;;;;;4.20;3.80;;;45.50;1.00;;;;;;5083636;28;20233;-73
2023/08/21 11:29:15;;;;;;;4.10;3.63;;;45.80;1.00;;;;;;5080481;28;20215;-72
2023/08/21 11:32:09;;;;;;;3.83;3.42;;;46.20;1.00;;;;;;5081259;28;20264;-71
2023/08/21 11:35:03;;;;;;;4.50;3.30;;;46.20;1.00;;;;;;5101477;28;20226;-75
2023/08/21 11:37:52;;;;;;;5.38;3.28;;;46.50;1.00;;;;;;5078536;28;20271;-74
2023/08/21 11:40:40;;;;;;;4.55;3.60;;;46.90;1.00;;;;;;5080115;28;20241;-72
2023/08/21 11:43:36;;;;;;;4.85;3.50;;;47.50;1.00;;;;;;5072514;28;20215;-74
2023/08/21 11:46:26;;;;;;;4.80;3.75;;;47.90;1.00;;;;;;5077321;28;20223;-73
2023/08/21 11:49:18;;;;;;;4.78;3.05;;;48.40;1.00;;;;;;5078844;28;20724;-74
2023/08/21 11:52:07;;;;;;;4.15;3.15;;;48.50;1.00;;;;;;5077048;28;20610;-74
2023/08/21 11:54:56;;;;;;;6.38;3.70;;;49.10;1.00;;;;;;5075399;28;20722;-73
2023/08/21 11:57:50;;;;;;;6.75;3.70;;;49.10;1.00;;;;;;5099566;28;20287;-72
2023/08/21 12:00:41;;;;;;;6.07;3.42;;;48.50;1.00;;;;;;5077016;28;20239;-73
2023/08/21 12:03:30;;;;;;;3.25;2.90;;;48.30;1.00;;;;;;5096787;28;20218;-72
2023/08/21 12:06:21;;;;;;;4.65;3.42;;;48.50;1.00;;;;;;5094345;28;20299;-75
2023/08/21 12:09:10;;;;;;;3.83;3.08;;;49.50;1.00;;;;;;5086335;28;20557;-74
2023/08/21 12:11:58;;;;;;;3.00;2.80;;;47.50;1.00;;;;;;5093311;28;20233;-74
2023/08/21 12:14:48;;;;;;;3.97;3.40;;;45.00;1.00;;;;;;5084487;28;20222;-74
2023/08/21 12:17:37;;;;;;;4.40;3.03;;;43.80;1.00;;;;;;5083076;28;20375;-75
2023/08/21 12:20:26;;;;;;;3.78;3.17;;;41.60;8.60;;;;;;5060961;28;20269;-74
2023/08/21 12:23:17;;;;;;;4.68;3.08;;;38.60;28.00;;;;;;5083449;28;20263;-73
2023/08/21 12:26:05;;;;;;;9.02;3.63;;;36.90;44.40;;;;;;5081642;28;20226;-73
2023/08/21 12:28:54;;;;;;;5.72;3.60;;;35.80;53.10;;;;;;5093973;28;20720;-73
2023/08/21 12:31:43;;;;;;;5.28;3.30;;;34.90;61.10;;;;;;5073313;28;20226;-74
2023/08/21 12:34:32;;;;;;;4.50;3.15;;;34.20;69.50;;;;;;5082736;28;20219;-72
2023/08/21 12:37:21;;;;;;;5.13;3.25;;;33.20;75.30;;;;;;5077732;28;20226;-72
2023/08/21 12:40:11;;;;;;;6.18;3.13;;;32.80;77.80;;;;;;5082628;28;20702;-72
2023/08/21 12:43:01;;;;;;;3.65;3.33;;;32.00;86.60;;;;;;5078381;28;20583;-72
2023/08/21 12:45:50;;;;;;;5.18;3.20;;;32.30;86.50;;;;;;5086001;28;20222;-73
2023/08/21 12:48:40;;;;;;;5.88;3.25;;;32.20;86.40;;;;;;5087265;28;20226;-73
2023/08/21 12:51:29;;;;;;;3.33;3.03;;;32.20;84.50;;;;;;5084942;28;20233;-74
2023/08/21 12:54:18;;;;;;;3.90;3.10;;;32.20;86.50;;;;;;5093508;28;20229;-74
2023/08/21 12:57:11;;;;;;;4.18;2.88;;;32.30;87.00;;;;;;5082515;28;20850;-73
2023/08/21 13:00:00;;;;;;;8.68;2.80;;;32.20;87.60;;;;;;5077263;28;20227;-74
2023/08/21 13:02:49;;;;;;;6.57;2.78;;;32.20;87.70;;;;;;5064636;28;20225;-74
2023/08/21 13:05:38;;;;;;;5.20;2.88;;;32.20;88.80;;;;;;5077647;28;20231;-74
2023/08/21 13:08:27;;;;;;;6.22;2.78;;;31.70;89.30;;;;;;5075801;28;20219;-73
2023/08/21 13:11:17;;;;;;;4.40;2.67;;;31.70;90.10;;;;;;5080891;28;20283;-72
2023/08/21 13:14:07;;;;;;;4.38;2.90;;;31.40;91.20;;;;;;5082652;28;20324;-72
2023/08/21 13:16:56;;;;;;;3.67;2.90;;;31.60;91.90;;;;;;5058014;28;20271;-73
2023/08/21 13:19:44;;;;;;;4.32;2.60;;;31.20;92.20;;;;;;5098609;28;20376;-72
2023/08/21 13:22:46;;;;;;;4.20;2.85;;;30.80;93.60;;;;;;5080764;28;20665;-73
2023/08/21 13:25:35;;;;;;;5.22;2.80;;;30.70;94.40;;;;;;5094448;28;20237;-72
2023/08/21 13:28:24;;;;;;;5.45;3.00;;;30.60;96.80;;;;;;5094334;28;20279;-74
2023/08/21 13:31:15;;;;;;;3.63;2.70;;;30.50;96.50;;;;;;5094647;28;20238;-74
2023/08/21 13:34:04;;;;;;;3.25;2.50;;;30.40;96.70;;;;;;5094719;28;20726;-73
2023/08/21 13:36:53;;;;;;;4.35;2.20;;;30.30;96.60;;;;;;5099015;28;20256;-73
2023/08/21 13:39:42;;;;;;;5.45;2.88;;;30.30;96.60;;;;;;5097344;28;20233;-74
2023/08/21 13:42:34;;;;;;;3.65;2.40;;;30.20;96.80;;;;;;5092611;28;20222;-74
2023/08/21 13:45:24;;;;;;;6.13;2.63;;;30.10;96.60;;;;;;5079289;28;20321;-74
2023/08/21 13:48:15;;;;;;;4.32;2.85;;;30.00;96.60;;;;;;5089674;28;20619;-73
2023/08/21 13:51:04;;;;;;;3.78;2.65;;;29.80;97.20;;;;;;5061873;28;20945;-73
2023/08/21 13:53:53;;;;;;;4.20;2.55;;;30.00;97.40;;;;;;5085886;28;20815;-73
2023/08/21 13:56:42;;;;;;;6.90;2.63;;;29.90;98.30;;;;;;5074970;28;20320;-72
2023/08/21 13:59:31;;;;;;;4.15;2.60;;;29.80;97.90;;;;;;5079710;28;20301;-73
2023/08/21 14:02:20;;;;;;;3.17;2.40;;;29.70;98.10;;;;;;5074539;28;20634;-74
2023/08/21 14:05:11;;;;;;;6.50;2.50;;;29.70;99.30;;;;;;5099038;28;20221;-73
2023/08/21 14:08:00;;;;;;;3.20;2.50;;;29.60;99.60;;;;;;5078033;28;20250;-74
2023/08/21 14:10:50;;;;;;;5.28;2.15;;;29.40;99.30;;;;;;5085969;28;20685;-73
2023/08/21 14:13:39;;;;;;;5.47;2.33;;;29.10;99.90;;;;;;5083535;28;20291;-73
2023/08/21 14:16:28;;;;;;;4.93;2.38;;;29.20;99.90;;;;;;5095817;28;20225;-73
2023/08/21 14:19:17;;;;;;;4.68;2.50;;;29.20;99.90;;;;;;5098936;28;20214;-72
2023/08/21 14:22:08;;;;;;;3.35;2.10;;;29.20;99.90;;;;;;5082298;28;20246;-74
2023/08/21 14:24:57;;;;;;;3.35;2.22;;;29.10;99.90;;;;;;5101793;28;20217;-73
2023/08/21 14:27:46;;;;;;;4.30;2.20;;;29.20;99.90;;;;;;5067136;28;20637;-73
2023/08/21 14:30:35;;;;;;;2.53;2.03;;;29.20;99.90;;;;;;5061513;28;20705;-74
2023/08/21 14:33:24;;;;;;;3.95;2.35;;;29.20;99.90;;;;;;5073324;28;20230;-74
2023/08/21 14:36:13;;;;;;;4.38;2.40;;;29.20;99.90;;;;;;5090440;27;20687;-73